createdAt,value
2023-01-22T00:00:22.061Z,18.92
2023-01-22T00:01:28.352Z,17.30
2023-01-22T00:02:36.798Z,18.40
2023-01-22T00:03:43.043Z,19.33
2023-01-22T00:04:59.594Z,20.08
2023-01-22T00:06:05.970Z,18.63
2023-01-22T00:07:11.958Z,20.77
2023-01-22T00:08:24.216Z,20.63
2023-01-22T00:09:36.143Z,21.50
2023-01-22T00:10:44.985Z,22.38
2023-01-22T00:11:51.890Z,24.10
2023-01-22T00:12:58.779Z,23.48
2023-01-22T00:14:07.692Z,24.27
2023-01-22T00:15:11.998Z,25.15
2023-01-22T00:16:22.525Z,24.58
2023-01-22T00:17:29.191Z,25.13
2023-01-22T00:18:41.569Z,25.13
2023-01-22T00:19:46.680Z,25.75
2023-01-22T00:21:00.692Z,25.67
2023-01-22T00:22:04.772Z,26.55
2023-01-22T00:23:14.831Z,27.05
2023-01-22T00:24:20.497Z,26.95
2023-01-22T00:25:29.657Z,28.27
2023-01-22T00:26:48.556Z,26.45
2023-01-22T00:27:54.121Z,26.85
2023-01-22T00:28:56.041Z,28.65
2023-01-22T00:30:00.603Z,26.85
2023-01-22T00:31:05.353Z,29.20
2023-01-22T00:32:10.090Z,28.88
2023-01-22T00:33:12.160Z,28.80
2023-01-22T00:34:16.691Z,28.70
2023-01-22T00:35:18.894Z,28.45
2023-01-22T00:36:24.934Z,25.50
2023-01-22T00:37:28.452Z,19.27
2023-01-22T00:38:33.158Z,20.17
2023-01-22T00:39:35.123Z,19.63
2023-01-22T00:40:39.630Z,19.40
2023-01-22T00:41:44.149Z,19.23
2023-01-22T00:42:49.251Z,24.65
2023-01-22T00:43:52.880Z,19.20
2023-01-22T00:44:59.629Z,20.55
2023-01-22T00:46:01.857Z,18.67
2023-01-22T00:47:06.418Z,17.50
2023-01-22T00:48:08.700Z,16.40
2023-01-22T00:49:14.119Z,16.42
2023-01-22T00:50:17.019Z,15.40
2023-01-22T00:51:21.712Z,15.65
2023-01-22T00:52:23.714Z,15.98
2023-01-22T00:53:28.573Z,15.35
2023-01-22T00:54:33.369Z,16.10
2023-01-22T00:55:35.392Z,15.40
2023-01-22T00:56:39.904Z,15.38
2023-01-22T00:57:44.559Z,14.80
2023-01-22T00:58:49.075Z,14.50
2023-01-22T00:59:52.325Z,15.27
2023-01-22T01:00:57.528Z,14.88
2023-01-22T01:01:59.475Z,15.20
2023-01-22T01:03:16.510Z,14.80
2023-01-22T01:04:21.191Z,14.65
2023-01-22T01:05:23.117Z,15.20
2023-01-22T01:06:27.643Z,14.75
2023-01-22T01:07:30.055Z,14.38
2023-01-22T01:08:37.634Z,14.25
2023-01-22T01:09:39.588Z,14.75
2023-01-22T01:10:44.319Z,13.98
2023-01-22T01:11:48.864Z,14.88
2023-01-22T01:12:53.403Z,14.52
2023-01-22T01:13:57.935Z,14.60
2023-01-22T01:14:59.875Z,14.63
2023-01-22T01:16:05.935Z,15.32
2023-01-22T01:17:07.961Z,15.10
2023-01-22T01:18:14.320Z,14.65
2023-01-22T01:19:17.431Z,15.27
2023-01-22T01:20:22.094Z,14.50
2023-01-22T01:21:24.199Z,13.32
2023-01-22T01:22:28.719Z,15.50
2023-01-22T01:23:31.276Z,14.30
2023-01-22T01:24:36.567Z,14.38
2023-01-22T01:25:41.853Z,14.73
2023-01-22T01:26:46.546Z,14.32
2023-01-22T01:27:48.540Z,15.07
2023-01-22T01:28:55.976Z,14.75
2023-01-22T01:29:57.973Z,13.52
2023-01-22T01:31:06.034Z,14.00
2023-01-22T01:32:08.188Z,15.07
2023-01-22T01:33:12.834Z,15.27
2023-01-22T01:34:14.778Z,14.85
2023-01-22T01:35:19.592Z,15.27
2023-01-22T01:36:40.426Z,15.50
2023-01-22T01:37:48.480Z,14.20
2023-01-22T01:38:51.503Z,13.65
2023-01-22T01:39:56.047Z,15.25
2023-01-22T01:40:58.543Z,14.50
2023-01-22T01:42:03.049Z,15.75
2023-01-22T01:43:04.977Z,18.05
2023-01-22T01:44:14.648Z,15.27
2023-01-22T01:45:21.706Z,14.70
2023-01-22T01:46:28.339Z,14.70
2023-01-22T01:47:36.000Z,14.45
2023-01-22T01:48:44.539Z,15.60
2023-01-22T01:49:51.302Z,15.35
2023-01-22T01:51:02.534Z,14.90
2023-01-22T01:52:09.238Z,14.85
2023-01-22T01:53:14.364Z,15.77
2023-01-22T01:54:17.533Z,15.27
2023-01-22T01:55:29.509Z,16.20
2023-01-22T01:56:37.464Z,15.43
2023-01-22T01:57:43.843Z,15.70
2023-01-22T01:58:46.870Z,15.20
2023-01-22T01:59:55.401Z,16.55
2023-01-22T02:01:01.478Z,15.05
2023-01-22T02:02:07.187Z,16.17
2023-01-22T02:03:09.194Z,15.70
2023-01-22T02:04:13.817Z,15.52
2023-01-22T02:05:20.583Z,15.57
2023-01-22T02:06:25.239Z,16.63
2023-01-22T02:07:27.382Z,15.55
2023-01-22T02:08:32.262Z,16.17
2023-01-22T02:09:34.234Z,14.52
2023-01-22T02:10:39.470Z,17.08
2023-01-22T02:11:42.387Z,16.20
2023-01-22T02:12:46.923Z,16.10
2023-01-22T02:13:52.952Z,17.08
2023-01-22T02:15:00.887Z,16.85
2023-01-22T02:16:02.863Z,17.08
2023-01-22T02:17:11.707Z,16.92
2023-01-22T02:18:13.741Z,17.10
2023-01-22T02:19:18.345Z,16.73
2023-01-22T02:20:20.570Z,17.40
2023-01-22T02:21:38.271Z,16.85
2023-01-22T02:22:40.703Z,16.40
2023-01-22T02:23:45.250Z,16.90
2023-01-22T02:24:47.561Z,15.60
2023-01-22T02:25:52.315Z,17.83
2023-01-22T02:26:54.361Z,17.80
2023-01-22T02:27:58.903Z,17.08
2023-01-22T02:29:00.994Z,17.35
2023-01-22T02:30:05.571Z,17.58
2023-01-22T02:31:07.558Z,17.35
2023-01-22T02:32:12.393Z,18.60
2023-01-22T02:33:14.896Z,18.75
2023-01-22T02:34:19.504Z,16.88
2023-01-22T02:35:21.506Z,19.23
2023-01-22T02:36:25.995Z,18.38
2023-01-22T02:37:31.053Z,17.90
2023-01-22T02:38:35.589Z,17.70
2023-01-22T02:39:38.024Z,18.40
2023-01-22T02:40:49.452Z,18.15
2023-01-22T02:41:51.681Z,17.98
2023-01-22T02:42:56.385Z,21.58
2023-01-22T02:43:58.487Z,18.23
2023-01-22T02:45:03.090Z,19.55
2023-01-22T02:46:05.729Z,19.67
2023-01-22T02:47:10.357Z,18.13
2023-01-22T02:48:12.297Z,18.50
2023-01-22T02:49:17.048Z,18.75
2023-01-22T02:50:19.540Z,18.63
2023-01-22T02:51:25.787Z,18.27
2023-01-22T02:52:30.438Z,19.63
2023-01-22T02:53:35.012Z,18.63
2023-01-22T02:54:36.947Z,19.30
2023-01-22T02:55:42.014Z,19.40
2023-01-22T02:56:43.957Z,19.13
2023-01-22T02:57:48.475Z,19.40
2023-01-22T02:58:50.929Z,18.92
2023-01-22T02:59:55.501Z,18.52
2023-01-22T03:00:57.516Z,18.13
2023-01-22T03:02:02.029Z,19.30
2023-01-22T03:03:07.840Z,19.20
2023-01-22T03:04:13.463Z,19.35
2023-01-22T03:05:15.495Z,18.08
2023-01-22T03:06:21.751Z,19.55
2023-01-22T03:07:23.749Z,19.15
2023-01-22T03:08:30.885Z,19.17
2023-01-22T03:09:32.852Z,18.92
2023-01-22T03:10:37.440Z,19.20
2023-01-22T03:11:41.640Z,18.55
2023-01-22T03:12:59.419Z,19.92
2023-01-22T03:14:16.456Z,20.48
2023-01-22T03:15:33.525Z,18.15
2023-01-22T03:16:50.920Z,19.55
2023-01-22T03:18:07.955Z,18.98
2023-01-22T03:19:25.015Z,20.25
2023-01-22T03:20:41.984Z,19.33
2023-01-22T03:21:46.604Z,18.92
2023-01-22T03:22:48.565Z,19.83
2023-01-22T03:23:57.382Z,20.05
2023-01-22T03:25:01.445Z,19.90
2023-01-22T03:26:06.030Z,20.90
2023-01-22T03:27:08.083Z,20.38
2023-01-22T03:28:18.753Z,19.63
2023-01-22T03:29:20.801Z,20.57
2023-01-22T03:30:25.356Z,19.90
2023-01-22T03:31:27.396Z,20.48
2023-01-22T03:32:31.993Z,19.95
2023-01-22T03:33:34.581Z,19.95
2023-01-22T03:34:39.452Z,19.67
2023-01-22T03:35:41.374Z,20.65
2023-01-22T03:36:46.168Z,19.83
2023-01-22T03:37:48.622Z,20.38
2023-01-22T03:38:55.801Z,19.35
2023-01-22T03:40:00.357Z,19.08
2023-01-22T03:41:04.691Z,19.95
2023-01-22T03:42:10.059Z,20.00
2023-01-22T03:43:11.989Z,20.70
2023-01-22T03:44:16.554Z,21.17
2023-01-22T03:45:18.471Z,20.42
2023-01-22T03:46:23.513Z,20.63
2023-01-22T03:47:25.459Z,20.92
2023-01-22T03:48:30.082Z,19.80
2023-01-22T03:49:32.010Z,19.48
2023-01-22T03:50:37.866Z,19.95
2023-01-22T03:51:40.590Z,21.27
2023-01-22T03:52:45.106Z,20.45
2023-01-22T03:53:47.713Z,19.88
2023-01-22T03:54:55.083Z,21.45
2023-01-22T03:55:58.142Z,20.75
2023-01-22T03:57:02.666Z,20.77
2023-01-22T03:58:04.577Z,20.90
2023-01-22T03:59:09.317Z,21.75
2023-01-22T04:00:13.890Z,20.38
2023-01-22T04:01:20.737Z,20.20
2023-01-22T04:02:22.756Z,21.50
2023-01-22T04:03:28.845Z,20.73
2023-01-22T04:04:30.782Z,21.52
2023-01-22T04:05:35.332Z,21.17
2023-01-22T04:06:39.953Z,22.10
2023-01-22T04:07:41.926Z,20.88
2023-01-22T04:08:49.090Z,20.60
2023-01-22T04:09:53.586Z,20.73
2023-01-22T04:10:58.700Z,22.00
2023-01-22T04:12:00.677Z,20.70
2023-01-22T04:13:05.211Z,22.25
2023-01-22T04:14:07.149Z,21.63
2023-01-22T04:15:13.557Z,21.90
2023-01-22T04:16:15.937Z,22.05
2023-01-22T04:17:20.498Z,22.10
2023-01-22T04:18:22.508Z,21.17
2023-01-22T04:19:27.072Z,22.08
2023-01-22T04:20:29.237Z,22.90
2023-01-22T04:21:33.799Z,21.88
2023-01-22T04:22:36.115Z,21.75
2023-01-22T04:23:40.643Z,21.67
2023-01-22T04:24:42.584Z,22.40
2023-01-22T04:25:50.200Z,21.73
2023-01-22T04:26:55.408Z,21.60
2023-01-22T04:27:57.511Z,21.58
2023-01-22T04:29:02.024Z,20.92
2023-01-22T04:30:05.112Z,21.48
2023-01-22T04:31:10.794Z,21.83
2023-01-22T04:32:12.787Z,22.05
2023-01-22T04:33:17.326Z,21.05
2023-01-22T04:34:19.320Z,21.65
2023-01-22T04:35:24.292Z,21.80
2023-01-22T04:36:29.158Z,21.08
2023-01-22T04:37:31.578Z,20.92
2023-01-22T04:38:36.081Z,21.40
2023-01-22T04:39:37.974Z,21.75
2023-01-22T04:40:42.595Z,21.55
2023-01-22T04:41:47.101Z,20.95
2023-01-22T04:42:51.891Z,25.70
2023-01-22T04:43:53.919Z,21.98
2023-01-22T04:44:58.476Z,21.33
2023-01-22T04:46:03.053Z,23.02
2023-01-22T04:47:05.165Z,22.00
2023-01-22T04:48:11.270Z,21.85
2023-01-22T04:49:13.333Z,24.83
2023-01-22T04:50:20.084Z,21.95
2023-01-22T04:51:22.308Z,21.50
2023-01-22T04:52:26.920Z,23.20
2023-01-22T04:53:28.854Z,22.35
2023-01-22T04:54:33.453Z,23.38
2023-01-22T04:55:35.451Z,21.83
2023-01-22T04:56:39.949Z,22.15
2023-01-22T04:57:44.565Z,21.58
2023-01-22T04:58:49.661Z,22.88
2023-01-22T04:59:51.606Z,23.77
2023-01-22T05:00:58.207Z,23.05
2023-01-22T05:02:00.138Z,22.08
2023-01-22T05:03:06.269Z,23.98
2023-01-22T05:04:08.276Z,22.90
2023-01-22T05:05:13.192Z,22.70
2023-01-22T05:06:17.781Z,22.45
2023-01-22T05:07:19.772Z,22.38
2023-01-22T05:08:24.320Z,21.55
2023-01-22T05:09:26.631Z,23.45
2023-01-22T05:10:31.424Z,23.77
2023-01-22T05:11:33.392Z,22.45
2023-01-22T05:12:37.914Z,23.30
2023-01-22T05:13:42.453Z,22.17
2023-01-22T05:14:46.951Z,23.33
2023-01-22T05:15:49.308Z,22.20
2023-01-22T05:16:53.904Z,21.65
2023-01-22T05:17:56.010Z,23.08
2023-01-22T05:19:00.505Z,22.38
2023-01-22T05:20:02.483Z,23.52
2023-01-22T05:21:07.119Z,24.15
2023-01-22T05:22:09.226Z,25.17
2023-01-22T05:23:13.888Z,23.50
2023-01-22T05:24:15.794Z,24.70
2023-01-22T05:25:20.497Z,25.80
2023-01-22T05:26:22.449Z,26.08
2023-01-22T05:27:26.961Z,26.38
2023-01-22T05:28:28.935Z,26.88
2023-01-22T05:29:36.090Z,28.55
2023-01-22T05:30:38.044Z,27.60
2023-01-22T05:31:42.735Z,29.33
2023-01-22T05:32:44.866Z,29.00
2023-01-22T05:33:49.421Z,29.70
2023-01-22T05:34:51.857Z,29.80
2023-01-22T05:36:00.206Z,30.25
2023-01-22T05:37:02.265Z,29.63
2023-01-22T05:38:06.883Z,31.55
2023-01-22T05:39:08.843Z,32.13
2023-01-22T05:40:14.799Z,30.98
2023-01-22T05:41:16.727Z,32.33
2023-01-22T05:42:21.271Z,33.72
2023-01-22T05:43:23.521Z,31.38
2023-01-22T05:44:28.689Z,31.95
2023-01-22T05:45:33.225Z,32.78
2023-01-22T05:46:38.297Z,33.60
2023-01-22T05:47:40.236Z,32.30
2023-01-22T05:48:44.834Z,32.45
2023-01-22T05:49:46.773Z,32.97
2023-01-22T05:50:51.358Z,32.13
2023-01-22T05:51:53.295Z,32.30
2023-01-22T05:52:58.197Z,33.72
2023-01-22T05:54:00.466Z,32.33
2023-01-22T05:55:04.983Z,33.65
2023-01-22T05:56:07.426Z,34.80
2023-01-22T05:57:11.909Z,35.42
2023-01-22T05:58:13.898Z,34.85
2023-01-22T05:59:18.679Z,35.97
2023-01-22T06:00:21.113Z,35.35
2023-01-22T06:01:28.778Z,35.90
2023-01-22T06:02:30.743Z,35.72
2023-01-22T06:03:35.650Z,36.90
2023-01-22T06:04:40.222Z,35.30
2023-01-22T06:05:42.145Z,37.30
2023-01-22T06:06:46.648Z,35.75
2023-01-22T06:07:48.634Z,36.67
2023-01-22T06:08:54.040Z,36.08
2023-01-22T06:09:55.958Z,35.22
2023-01-22T06:11:03.879Z,34.65
2023-01-22T06:12:06.589Z,35.90
2023-01-22T06:13:11.244Z,35.20
2023-01-22T06:14:13.176Z,34.65
2023-01-22T06:15:17.868Z,34.45
2023-01-22T06:16:20.131Z,35.47
2023-01-22T06:17:27.311Z,33.60
2023-01-22T06:18:29.787Z,34.15
2023-01-22T06:19:34.437Z,34.60
2023-01-22T06:20:36.867Z,34.28
2023-01-22T06:21:43.664Z,35.53
2023-01-22T06:22:48.387Z,38.13
2023-01-22T06:23:50.427Z,36.33
2023-01-22T06:24:55.086Z,37.75
2023-01-22T06:25:59.325Z,36.72
2023-01-22T06:27:03.937Z,36.97
2023-01-22T06:28:06.292Z,36.17
2023-01-22T06:29:10.922Z,36.90
2023-01-22T06:30:14.095Z,36.65
2023-01-22T06:31:18.781Z,38.35
2023-01-22T06:32:20.800Z,36.60
2023-01-22T06:33:28.184Z,37.72
2023-01-22T06:34:30.161Z,41.70
2023-01-22T06:35:34.779Z,37.28
2023-01-22T06:36:37.055Z,35.85
2023-01-22T06:37:41.638Z,36.83
2023-01-22T06:38:46.293Z,42.08
2023-01-22T06:39:48.358Z,37.22
2023-01-22T06:40:56.500Z,35.65
2023-01-22T06:41:58.563Z,37.30
2023-01-22T06:43:05.314Z,39.28
2023-01-22T06:44:07.303Z,37.90
2023-01-22T06:45:12.561Z,39.55
2023-01-22T06:46:17.340Z,40.05
2023-01-22T06:47:19.555Z,35.08
2023-01-22T06:48:26.836Z,35.88
2023-01-22T06:49:28.782Z,35.65
2023-01-22T06:50:33.496Z,34.35
2023-01-22T06:51:35.510Z,37.00
2023-01-22T06:52:40.115Z,34.95
2023-01-22T06:53:42.343Z,37.03
2023-01-22T06:54:46.992Z,35.40
2023-01-22T06:55:49.145Z,35.40
2023-01-22T06:56:53.708Z,35.45
2023-01-22T06:57:55.977Z,37.47
2023-01-22T06:59:00.618Z,33.65
2023-01-22T07:00:02.790Z,35.03
2023-01-22T07:01:08.658Z,37.60
2023-01-22T07:02:16.688Z,34.45
2023-01-22T07:03:21.425Z,33.00
2023-01-22T07:04:26.161Z,33.17
2023-01-22T07:05:30.751Z,33.78
2023-01-22T07:06:35.360Z,38.05
2023-01-22T07:07:37.450Z,41.42
2023-01-22T07:08:42.051Z,40.35
2023-01-22T07:09:44.015Z,37.25
2023-01-22T07:10:48.555Z,36.65
2023-01-22T07:11:50.514Z,35.72
2023-01-22T07:12:59.003Z,36.15
2023-01-22T07:14:01.070Z,40.00
2023-01-22T07:15:06.941Z,35.63
2023-01-22T07:16:12.831Z,37.20
2023-01-22T07:17:15.023Z,37.53
2023-01-22T07:18:21.053Z,37.28
2023-01-22T07:19:25.743Z,37.67
2023-01-22T07:20:30.286Z,35.10
2023-01-22T07:21:32.231Z,38.88
2023-01-22T07:22:37.375Z,39.72
2023-01-22T07:23:39.543Z,36.65
2023-01-22T07:24:44.059Z,36.97
2023-01-22T07:25:46.143Z,36.40
2023-01-22T07:26:50.709Z,34.47
2023-01-22T07:27:52.611Z,39.13
2023-01-22T07:28:57.158Z,35.75
2023-01-22T07:29:59.222Z,36.70
2023-01-22T07:31:03.932Z,37.42
2023-01-22T07:32:06.453Z,35.40
2023-01-22T07:33:13.793Z,43.67
2023-01-22T07:34:15.823Z,35.55
2023-01-22T07:35:23.482Z,41.75
2023-01-22T07:36:25.421Z,40.38
2023-01-22T07:37:29.948Z,36.95
2023-01-22T07:38:32.119Z,36.25
2023-01-22T07:39:36.657Z,39.22
2023-01-22T07:40:38.603Z,37.05
2023-01-22T07:41:43.321Z,42.55
2023-01-22T07:42:45.291Z,43.13
2023-01-22T07:43:50.114Z,36.33
2023-01-22T07:44:52.057Z,35.42
2023-01-22T07:45:58.030Z,39.00
2023-01-22T07:47:00.026Z,44.15
2023-01-22T07:48:07.729Z,35.85
2023-01-22T07:49:13.884Z,37.17
2023-01-22T07:50:19.090Z,38.25
2023-01-22T07:51:23.926Z,35.60
2023-01-22T07:52:28.506Z,35.88
2023-01-22T07:53:33.339Z,33.75
2023-01-22T07:54:36.603Z,34.95
2023-01-22T07:55:41.622Z,33.22
2023-01-22T07:56:43.592Z,33.63
2023-01-22T07:57:48.289Z,33.90
2023-01-22T07:58:50.262Z,36.63
2023-01-22T07:59:54.774Z,33.15
2023-01-22T08:00:56.783Z,32.25
2023-01-22T08:02:03.466Z,33.47
2023-01-22T08:03:06.907Z,32.38
2023-01-22T08:04:11.468Z,32.13
2023-01-22T08:05:14.443Z,32.80
2023-01-22T08:06:23.184Z,31.25
2023-01-22T08:07:27.941Z,34.58
2023-01-22T08:08:32.588Z,29.95
2023-01-22T08:09:36.251Z,32.15
2023-01-22T08:10:41.073Z,30.50
2023-01-22T08:11:42.991Z,31.58
2023-01-22T08:12:47.844Z,30.38
2023-01-22T08:13:50.031Z,29.15
2023-01-22T08:14:54.568Z,29.92
2023-01-22T08:15:56.637Z,27.77
2023-01-22T08:17:01.252Z,31.33
2023-01-22T08:18:03.244Z,28.45
2023-01-22T08:19:07.825Z,32.17
2023-01-22T08:20:11.412Z,31.90
2023-01-22T08:21:16.014Z,30.92
2023-01-22T08:22:23.614Z,31.05
2023-01-22T08:23:30.899Z,28.90
2023-01-22T08:24:34.433Z,30.63
2023-01-22T08:25:39.130Z,29.67
2023-01-22T08:26:41.181Z,32.92
2023-01-22T08:27:46.037Z,32.33
2023-01-22T08:28:48.034Z,33.70
2023-01-22T08:29:52.673Z,38.40
2023-01-22T08:30:58.561Z,34.88
2023-01-22T08:32:03.378Z,36.97
2023-01-22T08:33:06.066Z,31.85
2023-01-22T08:34:10.786Z,35.55
2023-01-22T08:35:15.956Z,30.60
2023-01-22T08:36:17.933Z,48.25
2023-01-22T08:37:22.671Z,39.20
2023-01-22T08:38:27.531Z,40.15
2023-01-22T08:39:32.128Z,38.92
2023-01-22T08:40:34.499Z,33.65
2023-01-22T08:41:40.032Z,38.75
2023-01-22T08:42:42.178Z,34.30
2023-01-22T08:43:46.779Z,27.23
2023-01-22T08:44:49.338Z,26.30
2023-01-22T08:45:54.119Z,27.98
2023-01-22T08:46:57.079Z,27.38
2023-01-22T08:48:02.096Z,35.38
2023-01-22T08:49:04.338Z,35.28
2023-01-22T08:50:09.897Z,30.42
2023-01-22T08:51:12.705Z,28.67
2023-01-22T08:52:17.300Z,32.13
2023-01-22T08:53:19.283Z,29.70
2023-01-22T08:54:27.071Z,27.38
2023-01-22T08:55:29.099Z,33.60
2023-01-22T08:56:33.660Z,29.25
2023-01-22T08:57:35.729Z,39.88
2023-01-22T08:58:40.311Z,42.35
2023-01-22T08:59:52.535Z,32.35
2023-01-22T09:01:04.543Z,26.10
2023-01-22T09:02:09.417Z,40.17
2023-01-22T09:03:11.415Z,49.22
2023-01-22T09:04:16.024Z,36.03
2023-01-22T09:05:18.157Z,26.48
2023-01-22T09:06:23.372Z,37.75
2023-01-22T09:07:25.449Z,38.35
2023-01-22T09:08:30.096Z,26.30
2023-01-22T09:09:37.257Z,26.60
2023-01-22T09:10:39.398Z,28.58
2023-01-22T09:11:45.146Z,23.63
2023-01-22T09:12:49.722Z,24.08
2023-01-22T09:13:56.277Z,24.67
2023-01-22T09:14:58.233Z,21.33
2023-01-22T09:16:02.878Z,22.40
2023-01-22T09:17:04.831Z,22.92
2023-01-22T09:18:09.509Z,23.38
2023-01-22T09:19:11.775Z,23.42
2023-01-22T09:20:16.656Z,25.67
2023-01-22T09:21:19.299Z,26.27
2023-01-22T09:22:23.868Z,29.92
2023-01-22T09:23:28.535Z,28.65
2023-01-22T09:24:30.480Z,23.13
2023-01-22T09:25:37.789Z,19.67
2023-01-22T09:26:42.632Z,20.80
2023-01-22T09:27:44.619Z,24.85
2023-01-22T09:28:49.282Z,21.73
2023-01-22T09:29:53.860Z,19.27
2023-01-22T09:30:55.856Z,20.55
2023-01-22T09:32:00.498Z,20.10
2023-01-22T09:33:02.846Z,18.48
2023-01-22T09:34:07.992Z,18.30
2023-01-22T09:35:11.303Z,24.98
2023-01-22T09:36:18.103Z,19.25
2023-01-22T09:37:20.186Z,21.23
2023-01-22T09:38:24.753Z,26.52
2023-01-22T09:39:26.728Z,17.20
2023-01-22T09:40:36.171Z,18.13
2023-01-22T09:41:47.832Z,18.23
2023-01-22T09:42:50.995Z,27.20
2023-01-22T09:43:58.614Z,15.52
2023-01-22T09:45:06.895Z,21.15
2023-01-22T09:46:18.589Z,18.00
2023-01-22T09:48:39.788Z,17.42
2023-01-22T09:49:53.270Z,17.92
2023-01-22T09:50:55.354Z,16.38
2023-01-22T09:52:04.955Z,16.50
2023-01-22T09:53:12.867Z,14.93
2023-01-22T09:54:19.100Z,16.25
2023-01-22T09:55:23.951Z,15.27
2023-01-22T09:56:35.141Z,14.77
2023-01-22T09:57:43.398Z,15.90
2023-01-22T09:58:45.548Z,14.88
2023-01-22T09:59:52.461Z,14.73
2023-01-22T10:01:00.552Z,13.30
2023-01-22T10:02:21.547Z,12.93
2023-01-22T10:03:28.125Z,14.48
2023-01-22T10:04:38.385Z,14.93
2023-01-22T10:05:46.908Z,14.20
2023-01-22T10:06:50.490Z,14.98
2023-01-22T10:08:00.756Z,15.40
2023-01-22T10:09:16.128Z,14.02
2023-01-22T10:10:23.873Z,15.57
2023-01-22T10:11:28.884Z,13.05
2023-01-22T10:12:30.906Z,14.38
2023-01-22T10:13:40.897Z,12.90
2023-01-22T10:14:44.225Z,11.68
2023-01-22T10:15:53.732Z,12.43
2023-01-22T10:16:59.377Z,12.68
2023-01-22T10:18:12.492Z,12.95
2023-01-22T10:19:26.576Z,11.27
2023-01-22T10:20:37.481Z,11.75
2023-01-22T10:21:48.213Z,12.98
2023-01-22T10:22:50.517Z,14.00
2023-01-22T10:23:58.110Z,13.43
2023-01-22T10:25:02.701Z,13.60
2023-01-22T10:26:15.019Z,13.00
2023-01-22T10:27:22.291Z,12.38
2023-01-22T10:28:29.643Z,12.98
2023-01-22T10:29:36.505Z,11.23
2023-01-22T10:30:48.923Z,10.70
2023-01-22T10:32:08.563Z,11.85
2023-01-22T10:33:20.403Z,11.90
2023-01-22T10:34:27.466Z,13.45
2023-01-22T10:35:33.475Z,12.00
2023-01-22T10:36:35.762Z,10.88
2023-01-22T10:37:47.758Z,11.35
2023-01-22T10:38:52.409Z,9.90
2023-01-22T10:40:00.558Z,9.77
2023-01-22T10:41:07.006Z,11.00
2023-01-22T10:42:17.019Z,10.98
2023-01-22T10:43:21.633Z,11.52
2023-01-22T10:44:25.521Z,11.40
2023-01-22T10:45:32.772Z,9.88
2023-01-22T10:46:37.341Z,10.02
2023-01-22T10:47:39.435Z,10.30
2023-01-22T10:48:44.112Z,10.63
2023-01-22T10:49:46.313Z,11.20
2023-01-22T10:51:03.510Z,12.02
2023-01-22T10:52:07.841Z,11.23
2023-01-22T10:53:22.859Z,11.70
2023-01-22T10:54:33.996Z,13.10
2023-01-22T10:55:40.791Z,10.98
2023-01-22T10:56:45.671Z,11.52
2023-01-22T10:57:52.832Z,12.48
2023-01-22T10:58:58.148Z,13.43
2023-01-22T11:00:07.278Z,12.98
2023-01-22T11:01:30.424Z,12.77
2023-01-22T11:02:37.863Z,11.02
2023-01-22T11:03:40.036Z,11.75
2023-01-22T11:04:44.645Z,12.88
2023-01-22T11:05:47.567Z,11.93
2023-01-22T11:06:55.852Z,12.57
2023-01-22T11:08:03.023Z,11.73
2023-01-22T11:09:14.565Z,12.88
2023-01-22T11:10:23.214Z,12.18
2023-01-22T11:11:34.682Z,13.80
2023-01-22T11:12:41.382Z,13.15
2023-01-22T11:13:56.082Z,12.40
2023-01-22T11:15:08.321Z,12.38
2023-01-22T11:16:16.321Z,12.57
2023-01-22T11:17:28.924Z,13.73
2023-01-22T11:18:35.545Z,11.93
2023-01-22T11:19:46.113Z,13.20
2023-01-22T11:20:56.014Z,11.88
2023-01-22T11:22:01.184Z,11.25
2023-01-22T11:23:15.797Z,11.57
2023-01-22T11:24:25.435Z,11.30
2023-01-22T11:25:41.886Z,11.48
2023-01-22T11:26:59.142Z,11.40
2023-01-22T11:28:12.836Z,14.57
2023-01-22T11:29:30.465Z,11.30
2023-01-22T11:30:56.025Z,12.93
2023-01-22T11:32:19.207Z,11.65
2023-01-22T11:33:45.283Z,15.05
2023-01-22T11:35:00.627Z,11.73
2023-01-22T11:36:11.877Z,11.93
2023-01-22T11:37:16.334Z,12.82
2023-01-22T11:38:31.098Z,12.85
2023-01-22T11:39:50.531Z,12.18
2023-01-22T11:41:33.084Z,10.82
2023-01-22T11:42:52.527Z,12.10
2023-01-22T11:44:14.796Z,12.18
2023-01-22T11:45:50.651Z,11.95
2023-01-22T11:47:12.011Z,12.25
2023-01-22T11:48:35.018Z,13.70
2023-01-22T11:49:49.727Z,12.80
2023-01-22T11:51:01.996Z,11.07
2023-01-22T11:52:23.290Z,12.18
2023-01-22T11:53:45.330Z,11.88
2023-01-22T11:55:01.154Z,12.23
2023-01-22T11:56:21.686Z,11.88
2023-01-22T11:57:33.004Z,11.50
2023-01-22T11:58:48.281Z,11.35
2023-01-22T12:00:31.696Z,10.38
2023-01-22T12:01:48.196Z,11.43
2023-01-22T12:03:09.578Z,10.77
2023-01-22T12:04:36.397Z,11.38
2023-01-22T12:05:47.205Z,10.82
2023-01-22T12:07:11.902Z,11.70
2023-01-22T12:08:30.531Z,11.10
2023-01-22T12:09:41.784Z,11.95
2023-01-22T12:11:15.577Z,11.07
2023-01-22T12:12:34.321Z,13.10
2023-01-22T12:13:50.147Z,11.07
2023-01-22T12:15:06.177Z,11.20
2023-01-22T12:16:21.188Z,11.48
2023-01-22T12:17:36.822Z,13.52
2023-01-22T12:19:16.324Z,11.70
2023-01-22T12:20:41.010Z,11.88
2023-01-22T12:21:56.656Z,12.73
2023-01-22T12:23:07.264Z,10.40
2023-01-22T12:24:19.543Z,10.68
2023-01-22T12:25:33.798Z,12.95
2023-01-22T12:26:41.477Z,11.63
2023-01-22T12:27:51.972Z,11.55
2023-01-22T12:29:05.393Z,10.55
2023-01-22T12:30:23.072Z,10.43
2023-01-22T12:31:32.906Z,11.90
2023-01-22T12:32:40.145Z,10.18
2023-01-22T12:33:46.129Z,11.25
2023-01-22T12:34:53.680Z,12.00
2023-01-22T12:36:05.504Z,11.07
2023-01-22T12:37:11.721Z,10.50
2023-01-22T12:38:27.469Z,12.85
2023-01-22T12:39:36.844Z,10.93
2023-01-22T12:41:06.737Z,11.32
2023-01-22T12:42:21.393Z,10.57
2023-01-22T12:43:33.192Z,10.90
2023-01-22T12:44:48.991Z,10.75
2023-01-22T12:45:56.683Z,10.38
2023-01-22T12:47:08.986Z,11.43
2023-01-22T12:48:25.204Z,10.68
2023-01-22T12:49:30.310Z,12.93
2023-01-22T12:50:35.357Z,12.40
2023-01-22T12:51:45.516Z,11.02
2023-01-22T12:53:00.859Z,11.02
2023-01-22T12:54:12.093Z,11.88
2023-01-22T12:55:33.204Z,11.68
2023-01-22T12:56:37.797Z,9.65
2023-01-22T12:57:44.318Z,10.27
2023-01-22T12:58:59.501Z,11.07
2023-01-22T13:00:15.770Z,10.85
2023-01-22T13:01:26.743Z,11.88
2023-01-22T13:02:37.914Z,11.25
2023-01-22T13:03:44.423Z,11.60
2023-01-22T13:04:46.458Z,11.95
2023-01-22T13:05:51.512Z,11.95
2023-01-22T13:07:07.099Z,10.75
2023-01-22T13:08:30.351Z,9.95
2023-01-22T13:09:39.717Z,10.27
2023-01-22T13:10:52.892Z,10.32
2023-01-22T13:11:57.543Z,9.38
2023-01-22T13:13:03.357Z,10.65
2023-01-22T13:14:21.013Z,10.60
2023-01-22T13:15:25.908Z,10.82
2023-01-22T13:16:35.716Z,11.75
2023-01-22T13:17:43.992Z,10.63
2023-01-22T13:18:49.240Z,10.55
2023-01-22T13:19:54.793Z,10.35
2023-01-22T13:21:02.910Z,9.10
2023-01-22T13:22:16.735Z,10.98
2023-01-22T13:23:21.500Z,11.52
2023-01-22T13:24:26.238Z,10.93
2023-01-22T13:25:30.753Z,11.00
2023-01-22T13:26:38.697Z,10.07
2023-01-22T13:27:46.117Z,11.50
2023-01-22T13:28:53.044Z,10.45
2023-01-22T13:30:10.045Z,10.70
2023-01-22T13:31:19.712Z,10.82
2023-01-22T13:32:29.245Z,11.63
2023-01-22T13:33:34.470Z,10.60
2023-01-22T13:34:36.472Z,10.60
2023-01-22T13:35:44.363Z,10.10
2023-01-22T13:36:51.197Z,10.65
2023-01-22T13:37:55.754Z,10.38
2023-01-22T13:39:01.969Z,12.63
2023-01-22T13:40:22.228Z,11.57
2023-01-22T13:41:33.272Z,11.20
2023-01-22T13:42:35.550Z,10.88
2023-01-22T13:43:42.651Z,11.80
2023-01-22T13:44:49.087Z,11.30
2023-01-22T13:45:54.929Z,11.63
2023-01-22T13:46:59.770Z,11.30
2023-01-22T13:48:06.498Z,9.73
2023-01-22T13:49:16.964Z,9.90
2023-01-22T13:50:21.250Z,11.40
2023-01-22T13:51:25.896Z,12.38
2023-01-22T13:52:33.208Z,10.40
2023-01-22T13:53:44.504Z,11.13
2023-01-22T13:54:55.420Z,10.75
2023-01-22T13:56:00.701Z,10.82
2023-01-22T13:57:02.937Z,11.73
2023-01-22T13:58:07.537Z,11.55
2023-01-22T13:59:19.695Z,10.57
2023-01-22T14:00:30.335Z,12.98
2023-01-22T14:01:36.255Z,12.57
2023-01-22T14:02:40.829Z,12.40
2023-01-22T14:03:42.874Z,11.43
2023-01-22T14:04:47.803Z,12.65
2023-01-22T14:05:50.453Z,11.55
2023-01-22T14:06:55.081Z,15.88
2023-01-22T14:08:17.486Z,11.68
2023-01-22T14:09:29.434Z,12.90
2023-01-22T14:10:34.051Z,11.65
2023-01-22T14:11:39.952Z,11.20
2023-01-22T14:12:44.941Z,12.20
2023-01-22T14:13:48.915Z,11.43
2023-01-22T14:14:53.938Z,11.63
2023-01-22T14:15:57.847Z,12.68
2023-01-22T14:17:02.520Z,15.18